createdAt,value
2019-05-20T00:00:51.009Z,15.40
2019-05-20T00:03:20.824Z,15.40
2019-05-20T00:05:51.849Z,15.40
2019-05-20T00:08:21.737Z,15.40
2019-05-20T00:10:51.583Z,15.40
2019-05-20T00:13:22.500Z,15.40
2019-05-20T00:15:52.361Z,15.40
2019-05-20T00:18:23.176Z,15.40
2019-05-20T00:20:53.027Z,15.40
2019-05-20T00:23:22.875Z,15.30
2019-05-20T00:25:53.111Z,15.30
2019-05-20T00:28:23.023Z,15.40
2019-05-20T00:30:53.938Z,15.40
2019-05-20T00:33:25.129Z,15.40
2019-05-20T00:35:54.946Z,15.40
2019-05-20T00:38:24.794Z,15.40
2019-05-20T00:40:54.659Z,15.40
2019-05-20T00:43:24.540Z,15.30
2019-05-20T00:45:54.379Z,15.30
2019-05-20T00:48:24.217Z,15.30
2019-05-20T00:50:54.336Z,15.30
2019-05-20T00:53:24.192Z,15.30
2019-05-20T00:55:54.028Z,15.30
2019-05-20T00:58:23.861Z,15.30
2019-05-20T01:00:53.735Z,15.30
2019-05-20T01:03:23.584Z,15.30
2019-05-20T01:05:53.811Z,15.30
2019-05-20T01:08:23.670Z,15.20
2019-05-20T01:10:53.529Z,15.20
2019-05-20T01:13:23.371Z,15.20
2019-05-20T01:15:53.679Z,15.20
2019-05-20T01:18:23.518Z,15.20
2019-05-20T01:20:53.440Z,15.20
2019-05-20T01:23:23.282Z,15.20
2019-05-20T01:25:53.127Z,15.20
2019-05-20T01:28:23.046Z,15.20
2019-05-20T01:30:52.898Z,15.20
2019-05-20T01:33:22.744Z,15.20
2019-05-20T01:35:52.605Z,15.20
2019-05-20T01:38:22.463Z,15.20
2019-05-20T01:40:52.297Z,15.20
2019-05-20T01:43:22.178Z,15.20
2019-05-20T01:45:52.350Z,15.20
2019-05-20T01:48:22.221Z,15.20
2019-05-20T01:50:52.080Z,15.20
2019-05-20T01:53:21.947Z,15.20
2019-05-20T01:55:51.813Z,15.20
2019-05-20T01:58:22.446Z,15.20
2019-05-20T02:00:52.363Z,15.20
2019-05-20T02:03:31.866Z,15.20
2019-05-20T02:05:53.713Z,15.20
2019-05-20T02:08:23.559Z,15.10
2019-05-20T02:10:56.505Z,15.10
2019-05-20T02:13:27.157Z,15.10
2019-05-20T02:15:58.651Z,15.10
2019-05-20T02:18:30.131Z,15.10
2019-05-20T02:20:59.986Z,15.10
2019-05-20T02:23:29.841Z,15.10
2019-05-20T02:25:59.705Z,15.10
2019-05-20T02:28:29.557Z,15.10
2019-05-20T02:31:00.771Z,15.10
2019-05-20T02:33:47.844Z,15.10
2019-05-20T02:36:02.124Z,15.10
2019-05-20T02:38:31.975Z,15.10
2019-05-20T02:41:01.819Z,15.10
2019-05-20T02:43:31.684Z,15.10
2019-05-20T02:46:01.539Z,15.00
2019-05-20T02:48:31.390Z,15.10
2019-05-20T02:51:01.542Z,15.10
2019-05-20T02:53:32.355Z,15.10
2019-05-20T02:56:02.186Z,15.00
2019-05-20T02:58:32.060Z,15.00
2019-05-20T03:01:02.015Z,15.10
2019-05-20T03:03:31.854Z,15.10
2019-05-20T03:06:02.123Z,15.10
2019-05-20T03:08:31.986Z,15.00
2019-05-20T03:11:01.868Z,15.00
2019-05-20T03:13:31.696Z,15.00
2019-05-20T03:16:01.548Z,15.00
2019-05-20T03:18:31.405Z,15.10
2019-05-20T03:21:01.247Z,15.00
2019-05-20T03:23:31.145Z,15.00
2019-05-20T03:26:01.073Z,15.00
2019-05-20T03:28:30.902Z,15.00
2019-05-20T03:31:00.764Z,15.00
2019-05-20T03:33:30.613Z,15.00
2019-05-20T03:36:00.476Z,15.00
2019-05-20T03:38:30.317Z,15.00
2019-05-20T03:41:00.515Z,15.00
2019-05-20T03:43:30.377Z,15.00
2019-05-20T03:46:00.220Z,15.00
2019-05-20T03:48:30.086Z,15.00
2019-05-20T03:50:59.927Z,15.00
2019-05-20T03:53:29.782Z,15.00
2019-05-20T03:55:59.628Z,15.00
2019-05-20T03:58:29.596Z,15.00
2019-05-20T04:00:59.431Z,15.00
2019-05-20T04:03:29.283Z,15.00
2019-05-20T04:05:59.135Z,15.00
2019-05-20T04:08:28.975Z,15.00
2019-05-20T04:10:58.851Z,15.00
2019-05-20T04:13:29.101Z,15.00
2019-05-20T04:15:59.320Z,15.00
2019-05-20T04:18:29.168Z,15.00
2019-05-20T04:20:59.077Z,15.00
2019-05-20T04:23:28.992Z,15.00
2019-05-20T04:25:58.887Z,15.00
2019-05-20T04:28:28.780Z,15.00
2019-05-20T04:30:58.642Z,15.10
2019-05-20T04:33:28.482Z,15.10
2019-05-20T04:35:58.342Z,15.10
2019-05-20T04:38:28.188Z,15.10
2019-05-20T04:40:58.031Z,15.10
2019-05-20T04:43:27.876Z,15.10
2019-05-20T04:45:58.103Z,15.10
2019-05-20T04:48:27.969Z,15.10
2019-05-20T04:50:57.798Z,15.10
2019-05-20T04:53:27.665Z,15.20
2019-05-20T04:55:57.506Z,15.20
2019-05-20T04:58:27.377Z,15.20
2019-05-20T05:00:57.715Z,15.20
2019-05-20T05:03:27.568Z,15.20
2019-05-20T05:05:57.429Z,15.20
2019-05-20T05:08:27.267Z,15.20
2019-05-20T05:10:57.126Z,15.20
2019-05-20T05:13:26.964Z,15.20
2019-05-20T05:15:56.830Z,15.30
2019-05-20T05:18:26.666Z,15.30
2019-05-20T05:20:56.505Z,15.30
2019-05-20T05:23:26.729Z,15.40
2019-05-20T05:25:57.643Z,15.40
2019-05-20T05:28:27.859Z,15.40
2019-05-20T05:30:58.071Z,15.50
2019-05-20T05:33:28.194Z,15.50
2019-05-20T05:35:58.052Z,15.60
2019-05-20T05:38:27.981Z,15.60
2019-05-20T05:40:58.166Z,15.60
2019-05-20T05:43:28.002Z,15.60
2019-05-20T05:45:57.873Z,15.70
2019-05-20T05:48:27.709Z,15.70
2019-05-20T05:50:57.598Z,15.70
2019-05-20T05:53:27.452Z,15.70
2019-05-20T05:55:57.668Z,15.70
2019-05-20T05:58:27.513Z,15.70
2019-05-20T06:00:57.359Z,15.80
2019-05-20T06:03:27.249Z,15.80
2019-05-20T06:06:11.267Z,15.80
2019-05-20T06:08:28.578Z,15.80
2019-05-20T06:10:58.430Z,15.80
2019-05-20T06:13:28.297Z,15.80
2019-05-20T06:15:58.165Z,15.80
2019-05-20T06:18:28.083Z,15.80
2019-05-20T06:20:57.933Z,15.80
2019-05-20T06:23:27.798Z,15.80
2019-05-20T06:25:57.682Z,15.90
2019-05-20T06:28:28.605Z,15.80
2019-05-20T06:30:58.458Z,15.90
2019-05-20T06:33:28.747Z,15.90
2019-05-20T06:35:58.595Z,15.90
2019-05-20T06:38:36.974Z,15.90
2019-05-20T06:41:08.626Z,16.00
2019-05-20T06:43:38.690Z,16.00
2019-05-20T06:46:08.818Z,16.00
2019-05-20T06:48:38.761Z,16.10
2019-05-20T06:51:08.683Z,16.10
2019-05-20T06:53:38.834Z,16.10
2019-05-20T06:56:08.717Z,16.10
2019-05-20T06:58:38.634Z,16.10
2019-05-20T07:01:08.497Z,16.10
2019-05-20T07:03:38.373Z,16.10
2019-05-20T07:06:08.239Z,16.10
2019-05-20T07:08:38.113Z,16.10
2019-05-20T07:11:09.053Z,16.20
2019-05-20T07:13:38.903Z,16.20
2019-05-20T07:16:08.763Z,16.20
2019-05-20T07:18:38.625Z,16.20
2019-05-20T07:21:08.559Z,16.20
2019-05-20T07:23:38.474Z,16.20
2019-05-20T07:26:08.358Z,16.20
2019-05-20T07:28:38.232Z,16.10
2019-05-20T07:31:08.165Z,16.10
2019-05-20T07:33:38.056Z,16.10
2019-05-20T07:36:10.151Z,16.10
2019-05-20T07:38:39.380Z,16.10
2019-05-20T07:41:09.325Z,16.10
2019-05-20T07:43:39.197Z,16.10
2019-05-20T07:46:09.058Z,16.10
2019-05-20T07:48:39.080Z,16.10
2019-05-20T07:51:09.338Z,16.20
2019-05-20T07:53:39.317Z,16.30
2019-05-20T07:56:12.537Z,16.40
2019-05-20T07:58:44.809Z,16.50
2019-05-20T08:01:14.677Z,16.50
2019-05-20T08:03:44.543Z,16.60
2019-05-20T08:06:14.703Z,16.60
2019-05-20T08:08:44.560Z,16.70
2019-05-20T08:11:14.417Z,16.60
2019-05-20T08:13:44.302Z,16.60
2019-05-20T08:16:14.149Z,16.70
2019-05-20T08:18:44.022Z,16.70
2019-05-20T08:21:13.893Z,16.70
2019-05-20T08:23:43.744Z,16.80
2019-05-20T08:26:13.623Z,16.90
2019-05-20T08:28:43.500Z,16.90
2019-05-20T08:31:13.383Z,16.90
2019-05-20T08:33:43.231Z,17.00
2019-05-20T08:36:13.121Z,17.00
2019-05-20T08:38:42.985Z,17.10
2019-05-20T08:41:12.849Z,17.10
2019-05-20T08:43:42.713Z,17.20
2019-05-20T08:46:12.585Z,17.20
2019-05-20T08:48:42.472Z,17.30
2019-05-20T08:51:12.309Z,17.30
2019-05-20T08:53:42.326Z,17.40
2019-05-20T08:56:12.191Z,17.40
2019-05-20T08:58:42.044Z,17.40
2019-05-20T09:01:12.376Z,17.30
2019-05-20T09:03:43.552Z,17.40
2019-05-20T09:06:13.511Z,17.30
2019-05-20T09:08:43.367Z,17.30
2019-05-20T09:11:13.647Z,17.30
2019-05-20T09:13:43.546Z,17.30
2019-05-20T09:16:13.483Z,17.30
2019-05-20T09:18:45.023Z,17.30
2019-05-20T09:21:15.237Z,17.30
2019-05-20T09:23:45.297Z,17.30
2019-05-20T09:26:15.282Z,17.40
2019-05-20T09:28:45.143Z,17.40
2019-05-20T09:31:15.201Z,17.40
2019-05-20T09:33:45.162Z,17.40
2019-05-20T09:36:15.009Z,17.40
2019-05-20T09:38:44.965Z,17.40
2019-05-20T09:41:14.958Z,17.40
2019-05-20T09:43:44.969Z,17.40
2019-05-20T09:46:15.054Z,17.40
2019-05-20T09:48:45.001Z,17.40
2019-05-20T09:51:15.847Z,17.40
2019-05-20T09:53:45.767Z,17.40
2019-05-20T09:56:15.624Z,17.40
2019-05-20T09:58:45.487Z,17.50
2019-05-20T10:01:15.736Z,17.50
2019-05-20T10:03:45.646Z,17.60
2019-05-20T10:06:15.523Z,17.60
2019-05-20T10:08:45.529Z,17.60
2019-05-20T10:11:15.562Z,17.60
2019-05-20T10:13:45.501Z,17.60
2019-05-20T10:16:15.363Z,17.60
2019-05-20T10:18:45.289Z,17.70
2019-05-20T10:21:15.173Z,17.70
2019-05-20T10:23:45.370Z,17.60
2019-05-20T10:26:15.231Z,17.60
2019-05-20T10:28:47.283Z,17.60
2019-05-20T10:31:19.410Z,17.60
2019-05-20T10:33:49.274Z,17.60
2019-05-20T10:36:19.132Z,17.50
2019-05-20T10:38:58.524Z,17.40
2019-05-20T10:41:20.818Z,17.30
2019-05-20T10:43:50.683Z,17.40
2019-05-20T10:46:21.619Z,17.30
2019-05-20T10:48:51.474Z,17.20
2019-05-20T10:51:21.345Z,17.20
2019-05-20T10:53:51.211Z,17.30
2019-05-20T10:56:21.442Z,17.40
2019-05-20T10:58:51.320Z,17.40
2019-05-20T11:01:21.179Z,17.30
2019-05-20T11:03:52.678Z,17.20
2019-05-20T11:06:22.535Z,17.20
2019-05-20T11:08:52.400Z,17.30
2019-05-20T11:11:22.261Z,17.30
2019-05-20T11:13:52.480Z,17.30
2019-05-20T11:16:22.370Z,17.30
2019-05-20T11:18:52.205Z,17.40
2019-05-20T11:21:22.456Z,17.40
2019-05-20T11:23:52.337Z,17.50
2019-05-20T11:26:22.190Z,17.50
2019-05-20T11:28:52.066Z,17.50
2019-05-20T11:31:22.295Z,17.60
2019-05-20T11:33:52.149Z,17.70
2019-05-20T11:36:22.006Z,17.70
2019-05-20T11:38:51.939Z,17.80
2019-05-20T11:41:51.305Z,17.80
2019-05-20T11:43:53.442Z,17.80
2019-05-20T11:46:23.392Z,17.90
2019-05-20T11:48:53.283Z,17.90
2019-05-20T11:51:23.420Z,17.90
2019-05-20T11:53:53.300Z,17.90
2019-05-20T11:56:23.168Z,17.90
2019-05-20T11:58:53.033Z,17.90
2019-05-20T12:01:22.881Z,17.90
2019-05-20T12:03:52.745Z,17.90
2019-05-20T12:06:22.608Z,17.90
2019-05-20T12:08:53.547Z,17.90
2019-05-20T12:11:23.429Z,17.90
2019-05-20T12:13:53.290Z,17.90
2019-05-20T12:16:23.190Z,18.00
2019-05-20T12:18:53.053Z,18.00
2019-05-20T12:21:22.938Z,18.00
2019-05-20T12:23:52.786Z,18.00
2019-05-20T12:26:22.915Z,18.10
2019-05-20T12:28:52.796Z,18.10
2019-05-20T12:31:22.647Z,18.10
2019-05-20T12:33:52.506Z,18.10
2019-05-20T12:36:22.357Z,18.00
2019-05-20T12:38:53.313Z,18.10
2019-05-20T12:41:23.255Z,18.10
2019-05-20T12:44:10.208Z,18.10
2019-05-20T12:46:24.727Z,18.30
2019-05-20T12:48:54.638Z,18.30
2019-05-20T12:51:24.638Z,18.40
2019-05-20T12:53:54.487Z,18.40
2019-05-20T12:56:26.004Z,18.60
2019-05-20T12:58:55.876Z,18.60
2019-05-20T13:01:25.730Z,18.70
2019-05-20T13:03:55.575Z,18.70
2019-05-20T13:06:25.439Z,18.70
2019-05-20T13:08:55.290Z,18.80
2019-05-20T13:11:25.191Z,18.80
2019-05-20T13:13:55.147Z,18.80
2019-05-20T13:16:25.015Z,18.80
2019-05-20T13:18:56.280Z,18.90
2019-05-20T13:21:26.436Z,18.90
2019-05-20T13:23:57.383Z,19.00
2019-05-20T13:26:27.868Z,18.90
2019-05-20T13:28:59.662Z,19.00
2019-05-20T13:31:29.369Z,19.10
2019-05-20T13:33:59.213Z,19.10
2019-05-20T13:36:29.078Z,19.20
2019-05-20T13:38:59.329Z,19.20
2019-05-20T13:41:29.437Z,19.10
2019-05-20T13:43:59.306Z,19.20
2019-05-20T13:46:29.580Z,19.10
2019-05-20T13:48:59.497Z,19.10
2019-05-20T13:51:29.436Z,19.20
2019-05-20T13:53:59.374Z,19.20
2019-05-20T13:56:30.302Z,19.30
2019-05-20T13:59:00.229Z,19.20
2019-05-20T14:01:30.182Z,19.30
2019-05-20T14:04:00.011Z,19.20
2019-05-20T14:06:29.951Z,19.20
2019-05-20T14:08:59.781Z,19.20
2019-05-20T14:11:34.552Z,19.20
2019-05-20T14:14:01.384Z,19.20
2019-05-20T14:16:31.321Z,19.20
2019-05-20T14:19:01.530Z,19.20
2019-05-20T14:21:31.473Z,19.30
2019-05-20T14:24:01.399Z,19.20
2019-05-20T14:26:31.287Z,19.20
2019-05-20T14:29:01.156Z,19.20
2019-05-20T14:31:30.983Z,19.20
2019-05-20T14:34:00.829Z,19.20
2019-05-20T14:36:39.303Z,19.10
2019-05-20T14:39:02.178Z,19.10
2019-05-20T14:41:32.185Z,19.20
2019-05-20T14:44:02.060Z,19.20
2019-05-20T14:46:31.931Z,19.20
2019-05-20T14:49:02.753Z,19.20
2019-05-20T14:51:32.871Z,19.20
2019-05-20T14:54:02.814Z,19.20
2019-05-20T14:56:32.681Z,19.20
2019-05-20T14:59:02.937Z,19.20
2019-05-20T15:01:32.793Z,19.10
2019-05-20T15:04:02.636Z,19.10
2019-05-20T15:06:32.510Z,19.20
2019-05-20T15:09:02.407Z,19.20
2019-05-20T15:11:38.001Z,19.10
2019-05-20T15:14:04.812Z,19.10
2019-05-20T15:16:34.656Z,19.10
2019-05-20T15:19:04.820Z,19.00
2019-05-20T15:21:34.847Z,19.00
2019-05-20T15:24:06.112Z,18.90
2019-05-20T15:26:35.955Z,18.90
2019-05-20T15:29:06.280Z,19.00
2019-05-20T15:31:36.293Z,19.00
2019-05-20T15:34:06.204Z,18.90
2019-05-20T15:36:36.064Z,18.90
2019-05-20T15:39:07.747Z,18.90
2019-05-20T15:41:37.655Z,18.90
2019-05-20T15:44:07.517Z,18.80
2019-05-20T15:46:38.351Z,18.80
2019-05-20T15:49:08.181Z,18.70
2019-05-20T15:51:38.037Z,18.70
2019-05-20T15:54:07.879Z,18.70
2019-05-20T15:56:37.822Z,18.70
2019-05-20T15:59:07.763Z,18.70
2019-05-20T16:01:37.622Z,18.70
2019-05-20T16:04:07.474Z,18.80
2019-05-20T16:06:37.330Z,18.80
2019-05-20T16:09:07.238Z,18.70
2019-05-20T16:11:37.284Z,18.80
2019-05-20T16:14:07.156Z,18.70
2019-05-20T16:16:37.027Z,18.70
2019-05-20T16:19:06.893Z,18.70
2019-05-20T16:21:37.213Z,18.70
2019-05-20T16:24:07.168Z,18.60
2019-05-20T16:26:38.661Z,18.70
2019-05-20T16:29:08.532Z,18.60
2019-05-20T16:31:38.387Z,18.60
2019-05-20T16:34:08.308Z,18.60
2019-05-20T16:36:38.340Z,18.50
2019-05-20T16:39:08.189Z,18.50
2019-05-20T16:41:38.110Z,18.50
2019-05-20T16:44:08.475Z,18.50
2019-05-20T16:46:38.403Z,18.50
2019-05-20T16:49:08.323Z,18.50
2019-05-20T16:51:38.259Z,18.50
2019-05-20T16:54:08.189Z,18.40
2019-05-20T16:56:39.128Z,18.40
2019-05-20T16:59:08.972Z,18.50
2019-05-20T17:01:46.447Z,18.50
2019-05-20T17:04:10.760Z,18.50
2019-05-20T17:06:40.682Z,18.50
2019-05-20T17:09:10.750Z,18.40
2019-05-20T17:11:40.672Z,18.40
2019-05-20T17:14:10.915Z,18.30
2019-05-20T17:16:40.880Z,18.40
2019-05-20T17:19:10.737Z,18.30
2019-05-20T17:21:40.573Z,18.40
2019-05-20T17:24:10.813Z,18.40
2019-05-20T17:26:40.667Z,18.30
2019-05-20T17:29:10.519Z,18.30
2019-05-20T17:31:42.058Z,18.30
2019-05-20T17:34:13.001Z,18.30
2019-05-20T17:36:42.842Z,18.30
2019-05-20T17:39:12.721Z,18.20
2019-05-20T17:41:42.582Z,18.20
2019-05-20T17:44:12.474Z,18.20
2019-05-20T17:46:42.329Z,18.20
2019-05-20T17:49:12.507Z,18.20
2019-05-20T17:51:43.375Z,18.20
2019-05-20T17:54:13.516Z,18.20
2019-05-20T17:56:43.457Z,18.20
2019-05-20T17:59:13.269Z,18.20
2019-05-20T18:01:43.132Z,18.20
2019-05-20T18:04:12.979Z,18.20
2019-05-20T18:06:42.826Z,18.20
2019-05-20T18:09:12.798Z,18.10
2019-05-20T18:11:42.631Z,18.10
2019-05-20T18:14:12.885Z,18.10
2019-05-20T18:16:42.725Z,18.00
2019-05-20T18:19:12.585Z,18.00
2019-05-20T18:21:42.431Z,18.00
2019-05-20T18:24:14.021Z,18.00
2019-05-20T18:26:44.311Z,17.90
2019-05-20T18:29:14.155Z,18.00
2019-05-20T18:31:44.014Z,17.90
2019-05-20T18:34:13.887Z,17.90
2019-05-20T18:36:43.738Z,17.90
2019-05-20T18:39:13.582Z,17.90
2019-05-20T18:41:43.507Z,17.90
2019-05-20T18:44:13.507Z,17.80
2019-05-20T18:46:43.326Z,17.80
2019-05-20T18:49:13.182Z,17.80
2019-05-20T18:51:43.024Z,17.80
2019-05-20T18:54:12.875Z,17.80
2019-05-20T18:56:43.758Z,17.80
2019-05-20T18:59:13.673Z,17.80
2019-05-20T19:01:50.964Z,17.80
2019-05-20T19:04:15.068Z,17.80
2019-05-20T19:06:44.911Z,17.70
2019-05-20T19:09:15.177Z,17.70
2019-05-20T19:11:45.195Z,17.70
2019-05-20T19:14:16.338Z,17.70
2019-05-20T19:16:46.254Z,17.70
2019-05-20T19:19:16.682Z,17.70
2019-05-20T19:21:46.509Z,17.70
2019-05-20T19:24:16.410Z,17.70
2019-05-20T19:26:46.324Z,17.70
2019-05-20T19:29:16.183Z,17.70
2019-05-20T19:31:46.036Z,17.60
2019-05-20T19:34:16.070Z,17.60
2019-05-20T19:36:46.188Z,17.60
2019-05-20T19:39:16.204Z,17.60
2019-05-20T19:41:46.118Z,17.60
2019-05-20T19:44:16.136Z,17.60
2019-05-20T19:46:46.461Z,17.60
2019-05-20T19:49:16.478Z,17.50
2019-05-20T19:51:46.392Z,17.50
2019-05-20T19:54:16.410Z,17.50
2019-05-20T19:56:46.229Z,17.40
2019-05-20T19:59:16.138Z,17.40
2019-05-20T20:01:46.039Z,17.40
2019-05-20T20:04:15.964Z,17.40
2019-05-20T20:06:45.881Z,17.40
2019-05-20T20:09:15.795Z,17.40
2019-05-20T20:11:45.710Z,17.40
2019-05-20T20:14:15.539Z,17.40
2019-05-20T20:16:45.443Z,17.50
2019-05-20T20:19:15.354Z,17.50
2019-05-20T20:21:45.255Z,17.40
2019-05-20T20:24:15.387Z,17.40
2019-05-20T20:26:45.710Z,17.40
2019-05-20T20:29:15.627Z,17.40
2019-05-20T20:31:45.454Z,17.30
2019-05-20T20:34:15.312Z,17.20
2019-05-20T20:36:45.157Z,17.10
2019-05-20T20:39:15.007Z,17.10
2019-05-20T20:41:46.161Z,17.00
2019-05-20T20:44:16.022Z,16.90
2019-05-20T20:46:45.853Z,16.90
2019-05-20T20:49:16.830Z,16.90
2019-05-20T20:51:46.765Z,16.80
2019-05-20T20:54:16.617Z,16.80
2019-05-20T20:56:46.476Z,16.80
2019-05-20T20:59:16.387Z,16.70
2019-05-20T21:01:46.238Z,16.70
2019-05-20T21:04:16.083Z,16.70
2019-05-20T21:06:45.934Z,16.60
2019-05-20T21:09:15.791Z,16.70
2019-05-20T21:11:45.661Z,16.70
2019-05-20T21:14:15.588Z,16.70
2019-05-20T21:16:45.430Z,16.70
2019-05-20T21:19:15.297Z,16.70
2019-05-20T21:21:45.503Z,16.60
2019-05-20T21:24:15.337Z,16.70
2019-05-20T21:26:45.215Z,16.60
2019-05-20T21:29:15.062Z,16.70
2019-05-20T21:31:44.968Z,16.70
2019-05-20T21:34:14.804Z,16.70
2019-05-20T21:36:47.626Z,16.60
2019-05-20T21:39:16.143Z,16.60
2019-05-20T21:41:46.011Z,16.60
2019-05-20T21:44:15.846Z,16.60
2019-05-20T21:46:45.703Z,16.60
2019-05-20T21:49:15.560Z,16.60
2019-05-20T21:51:45.437Z,16.60
2019-05-20T21:54:15.285Z,16.60
2019-05-20T21:56:45.121Z,16.60
2019-05-20T21:59:14.979Z,16.60
2019-05-20T22:01:44.837Z,16.60
2019-05-20T22:04:14.687Z,16.60
2019-05-20T22:06:44.549Z,16.60
2019-05-20T22:09:14.402Z,16.60
2019-05-20T22:11:44.575Z,16.60
2019-05-20T22:14:14.438Z,16.60
2019-05-20T22:16:44.859Z,16.50
2019-05-20T22:19:14.712Z,16.50
2019-05-20T22:21:46.267Z,16.50
2019-05-20T22:24:16.669Z,16.50
2019-05-20T22:26:46.523Z,16.50
2019-05-20T22:29:16.383Z,16.50
2019-05-20T22:31:46.599Z,16.50
2019-05-20T22:34:16.447Z,16.40
2019-05-20T22:36:46.290Z,16.40
2019-05-20T22:39:16.138Z,16.40
2019-05-20T22:41:45.990Z,16.40
2019-05-20T22:44:15.833Z,16.40
2019-05-20T22:46:45.679Z,16.40
2019-05-20T22:49:15.523Z,16.40
2019-05-20T22:51:45.370Z,16.40
2019-05-20T22:54:16.532Z,16.40
2019-05-20T22:56:46.423Z,16.40
2019-05-20T22:59:16.274Z,16.40
2019-05-20T23:01:46.115Z,16.40
2019-05-20T23:04:15.976Z,16.30
2019-05-20T23:06:45.814Z,16.30
2019-05-20T23:09:15.746Z,16.30
2019-05-20T23:11:45.598Z,16.30
2019-05-20T23:14:15.476Z,16.30
2019-05-20T23:16:45.333Z,16.30
2019-05-20T23:19:15.186Z,16.30
2019-05-20T23:21:46.535Z,16.30
2019-05-20T23:24:16.382Z,16.30
2019-05-20T23:26:46.234Z,16.30
2019-05-20T23:29:16.102Z,16.30
2019-05-20T23:31:46.050Z,16.30
2019-05-20T23:34:15.980Z,16.30
2019-05-20T23:36:45.832Z,16.30
2019-05-20T23:39:15.691Z,16.30
2019-05-20T23:41:45.535Z,16.30
2019-05-20T23:44:15.396Z,16.30
2019-05-20T23:46:45.233Z,16.30
2019-05-20T23:49:15.090Z,16.30
2019-05-20T23:51:44.951Z,16.30
2019-05-20T23:54:14.798Z,16.30
2019-05-20T23:56:44.639Z,16.30
2019-05-20T23:59:14.495Z,16.30
